sensor_id;sensor_type;location;lat;lon;timestamp;P1;durP1;ratioP1;P2;durP2;ratioP2
77451;SDS011;66537;52.370;4.832;2024-01-11T00:02:07;24.17;;;9.07;;
77451;SDS011;66537;52.370;4.832;2024-01-11T00:04:32;32.00;;;9.90;;
77451;SDS011;66537;52.370;4.832;2024-01-11T00:06:58;24.25;;;10.05;;
77451;SDS011;66537;52.370;4.832;2024-01-11T00:09:23;27.67;;;10.30;;
77451;SDS011;66537;52.370;4.832;2024-01-11T00:11:48;27.33;;;9.73;;
77451;SDS011;66537;52.370;4.832;2024-01-11T00:14:14;24.50;;;9.93;;
77451;SDS011;66537;52.370;4.832;2024-01-11T00:16:39;26.55;;;10.18;;
77451;SDS011;66537;52.370;4.832;2024-01-11T00:19:06;30.20;;;9.77;;
77451;SDS011;66537;52.370;4.832;2024-01-11T00:21:31;24.93;;;10.47;;
77451;SDS011;66537;52.370;4.832;2024-01-11T00:23:56;25.17;;;9.85;;
77451;SDS011;66537;52.370;4.832;2024-01-11T00:26:22;26.63;;;10.37;;
77451;SDS011;66537;52.370;4.832;2024-01-11T00:28:47;28.80;;;11.10;;
77451;SDS011;66537;52.370;4.832;2024-01-11T00:31:12;26.03;;;10.53;;
77451;SDS011;66537;52.370;4.832;2024-01-11T00:33:38;28.13;;;10.85;;
77451;SDS011;66537;52.370;4.832;2024-01-11T00:36:04;25.15;;;9.95;;
77451;SDS011;66537;52.370;4.832;2024-01-11T00:38:29;26.80;;;11.50;;
77451;SDS011;66537;52.370;4.832;2024-01-11T00:40:55;30.33;;;11.03;;
77451;SDS011;66537;52.370;4.832;2024-01-11T00:43:20;28.80;;;12.00;;
77451;SDS011;66537;52.370;4.832;2024-01-11T00:45:45;26.00;;;11.13;;
77451;SDS011;66537;52.370;4.832;2024-01-11T00:48:11;32.22;;;13.13;;
77451;SDS011;66537;52.370;4.832;2024-01-11T00:50:36;30.60;;;11.48;;
77451;SDS011;66537;52.370;4.832;2024-01-11T00:53:05;32.63;;;12.73;;
77451;SDS011;66537;52.370;4.832;2024-01-11T00:55:30;29.73;;;12.05;;
77451;SDS011;66537;52.370;4.832;2024-01-11T00:57:56;29.15;;;12.10;;
77451;SDS011;66537;52.370;4.832;2024-01-11T01:00:21;29.63;;;12.23;;
77451;SDS011;66537;52.370;4.832;2024-01-11T01:02:46;30.10;;;11.80;;
77451;SDS011;66537;52.370;4.832;2024-01-11T01:05:12;32.57;;;13.87;;
77451;SDS011;66537;52.370;4.832;2024-01-11T01:07:37;37.50;;;12.93;;
77451;SDS011;66537;52.370;4.832;2024-01-11T01:10:03;28.77;;;11.70;;
77451;SDS011;66537;52.370;4.832;2024-01-11T01:12:28;30.40;;;12.52;;
77451;SDS011;66537;52.370;4.832;2024-01-11T01:14:54;36.57;;;14.33;;
77451;SDS011;66537;52.370;4.832;2024-01-11T01:17:21;30.60;;;12.43;;
77451;SDS011;66537;52.370;4.832;2024-01-11T01:19:47;33.05;;;12.75;;
77451;SDS011;66537;52.370;4.832;2024-01-11T01:22:12;35.50;;;13.52;;
77451;SDS011;66537;52.370;4.832;2024-01-11T01:24:38;32.83;;;12.90;;
77451;SDS011;66537;52.370;4.832;2024-01-11T01:27:03;31.43;;;13.17;;
77451;SDS011;66537;52.370;4.832;2024-01-11T01:29:28;29.65;;;11.85;;
77451;SDS011;66537;52.370;4.832;2024-01-11T01:31:54;31.27;;;12.83;;
77451;SDS011;66537;52.370;4.832;2024-01-11T01:34:19;36.63;;;15.20;;
77451;SDS011;66537;52.370;4.832;2024-01-11T01:36:44;37.03;;;14.32;;
77451;SDS011;66537;52.370;4.832;2024-01-11T01:39:11;34.33;;;13.13;;
77451;SDS011;66537;52.370;4.832;2024-01-11T01:41:36;35.10;;;12.93;;
77451;SDS011;66537;52.370;4.832;2024-01-11T01:44:02;34.10;;;13.40;;
77451;SDS011;66537;52.370;4.832;2024-01-11T01:46:27;33.80;;;12.73;;
77451;SDS011;66537;52.370;4.832;2024-01-11T01:48:53;37.42;;;13.75;;
77451;SDS011;66537;52.370;4.832;2024-01-11T01:51:20;33.35;;;13.82;;
77451;SDS011;66537;52.370;4.832;2024-01-11T01:53:47;35.55;;;15.13;;
77451;SDS011;66537;52.370;4.832;2024-01-11T01:56:15;34.08;;;13.38;;
77451;SDS011;66537;52.370;4.832;2024-01-11T01:58:42;35.97;;;13.63;;
77451;SDS011;66537;52.370;4.832;2024-01-11T02:01:08;38.10;;;14.45;;
77451;SDS011;66537;52.370;4.832;2024-01-11T02:03:33;36.67;;;15.20;;
77451;SDS011;66537;52.370;4.832;2024-01-11T02:06:01;36.50;;;14.57;;
77451;SDS011;66537;52.370;4.832;2024-01-11T02:08:29;33.50;;;13.82;;
77451;SDS011;66537;52.370;4.832;2024-01-11T02:10:56;34.97;;;14.18;;
77451;SDS011;66537;52.370;4.832;2024-01-11T02:13:24;32.30;;;13.80;;
77451;SDS011;66537;52.370;4.832;2024-01-11T02:15:49;39.35;;;15.05;;
77451;SDS011;66537;52.370;4.832;2024-01-11T02:18:15;34.22;;;14.05;;
77451;SDS011;66537;52.370;4.832;2024-01-11T02:20:40;41.93;;;16.73;;
77451;SDS011;66537;52.370;4.832;2024-01-11T02:23:07;37.20;;;15.63;;
77451;SDS011;66537;52.370;4.832;2024-01-11T02:25:36;43.55;;;16.38;;
77451;SDS011;66537;52.370;4.832;2024-01-11T02:28:01;40.77;;;14.90;;
77451;SDS011;66537;52.370;4.832;2024-01-11T02:30:27;40.97;;;16.20;;
77451;SDS011;66537;52.370;4.832;2024-01-11T02:32:52;41.97;;;16.75;;
77451;SDS011;66537;52.370;4.832;2024-01-11T02:35:18;41.20;;;17.25;;
77451;SDS011;66537;52.370;4.832;2024-01-11T02:37:44;40.90;;;15.73;;
77451;SDS011;66537;52.370;4.832;2024-01-11T02:40:11;43.70;;;16.77;;
77451;SDS011;66537;52.370;4.832;2024-01-11T02:42:38;43.15;;;16.40;;
77451;SDS011;66537;52.370;4.832;2024-01-11T02:45:04;42.67;;;16.93;;
77451;SDS011;66537;52.370;4.832;2024-01-11T02:47:30;48.40;;;19.00;;
77451;SDS011;66537;52.370;4.832;2024-01-11T02:49:55;47.42;;;18.05;;
77451;SDS011;66537;52.370;4.832;2024-01-11T02:52:22;52.88;;;20.83;;
77451;SDS011;66537;52.370;4.832;2024-01-11T02:54:47;48.22;;;18.85;;
77451;SDS011;66537;52.370;4.832;2024-01-11T02:57:13;48.05;;;18.70;;
77451;SDS011;66537;52.370;4.832;2024-01-11T02:59:39;50.13;;;18.42;;
77451;SDS011;66537;52.370;4.832;2024-01-11T03:02:05;53.03;;;20.20;;
77451;SDS011;66537;52.370;4.832;2024-01-11T03:04:30;50.45;;;20.75;;
77451;SDS011;66537;52.370;4.832;2024-01-11T03:06:56;51.83;;;20.87;;
77451;SDS011;66537;52.370;4.832;2024-01-11T03:09:21;52.93;;;21.90;;
77451;SDS011;66537;52.370;4.832;2024-01-11T03:11:46;49.10;;;19.88;;
77451;SDS011;66537;52.370;4.832;2024-01-11T03:14:12;52.78;;;19.42;;
77451;SDS011;66537;52.370;4.832;2024-01-11T03:16:37;53.53;;;20.13;;
77451;SDS011;66537;52.370;4.832;2024-01-11T03:19:04;54.90;;;22.05;;
77451;SDS011;66537;52.370;4.832;2024-01-11T03:21:30;53.13;;;21.05;;
77451;SDS011;66537;52.370;4.832;2024-01-11T03:23:55;61.23;;;22.03;;
77451;SDS011;66537;52.370;4.832;2024-01-11T03:26:21;50.50;;;20.83;;
77451;SDS011;66537;52.370;4.832;2024-01-11T03:28:47;59.28;;;22.67;;
77451;SDS011;66537;52.370;4.832;2024-01-11T03:31:13;57.53;;;22.55;;
77451;SDS011;66537;52.370;4.832;2024-01-11T03:33:38;61.03;;;23.70;;
77451;SDS011;66537;52.370;4.832;2024-01-11T03:36:07;47.63;;;20.20;;
77451;SDS011;66537;52.370;4.832;2024-01-11T03:38:36;57.08;;;22.55;;
77451;SDS011;66537;52.370;4.832;2024-01-11T03:41:06;49.55;;;18.70;;
77451;SDS011;66537;52.370;4.832;2024-01-11T03:43:33;56.30;;;21.02;;
77451;SDS011;66537;52.370;4.832;2024-01-11T03:45:58;52.30;;;20.67;;
77451;SDS011;66537;52.370;4.832;2024-01-11T03:48:24;58.80;;;22.87;;
77451;SDS011;66537;52.370;4.832;2024-01-11T03:50:49;48.47;;;18.53;;
77451;SDS011;66537;52.370;4.832;2024-01-11T03:53:14;50.30;;;19.60;;
77451;SDS011;66537;52.370;4.832;2024-01-11T03:55:39;53.33;;;20.17;;
77451;SDS011;66537;52.370;4.832;2024-01-11T03:58:05;50.22;;;19.58;;
77451;SDS011;66537;52.370;4.832;2024-01-11T04:00:30;53.47;;;23.07;;
77451;SDS011;66537;52.370;4.832;2024-01-11T04:02:57;61.80;;;23.42;;
77451;SDS011;66537;52.370;4.832;2024-01-11T04:05:22;54.90;;;23.23;;
77451;SDS011;66537;52.370;4.832;2024-01-11T04:07:47;53.88;;;21.00;;
77451;SDS011;66537;52.370;4.832;2024-01-11T04:10:17;59.00;;;23.47;;
77451;SDS011;66537;52.370;4.832;2024-01-11T04:12:42;54.80;;;22.13;;
77451;SDS011;66537;52.370;4.832;2024-01-11T04:15:08;49.87;;;20.47;;
77451;SDS011;66537;52.370;4.832;2024-01-11T04:17:33;55.05;;;22.90;;
77451;SDS011;66537;52.370;4.832;2024-01-11T04:19:59;58.50;;;22.60;;
77451;SDS011;66537;52.370;4.832;2024-01-11T04:22:24;56.13;;;21.85;;
77451;SDS011;66537;52.370;4.832;2024-01-11T04:24:49;54.33;;;21.95;;
77451;SDS011;66537;52.370;4.832;2024-01-11T04:27:15;58.03;;;23.20;;
77451;SDS011;66537;52.370;4.832;2024-01-11T04:29:40;56.85;;;22.90;;
77451;SDS011;66537;52.370;4.832;2024-01-11T04:32:05;53.93;;;21.30;;
77451;SDS011;66537;52.370;4.832;2024-01-11T04:34:31;58.67;;;23.17;;
77451;SDS011;66537;52.370;4.832;2024-01-11T04:36:56;57.17;;;22.42;;
77451;SDS011;66537;52.370;4.832;2024-01-11T04:39:21;59.37;;;22.53;;
77451;SDS011;66537;52.370;4.832;2024-01-11T04:41:47;63.77;;;23.30;;
77451;SDS011;66537;52.370;4.832;2024-01-11T04:44:13;55.22;;;22.48;;
77451;SDS011;66537;52.370;4.832;2024-01-11T04:46:38;54.10;;;21.55;;
77451;SDS011;66537;52.370;4.832;2024-01-11T04:49:03;60.23;;;22.37;;
77451;SDS011;66537;52.370;4.832;2024-01-11T04:51:28;56.57;;;21.60;;
77451;SDS011;66537;52.370;4.832;2024-01-11T04:53:54;56.83;;;22.57;;
77451;SDS011;66537;52.370;4.832;2024-01-11T04:56:19;55.70;;;19.83;;
77451;SDS011;66537;52.370;4.832;2024-01-11T04:58:45;58.28;;;22.83;;
77451;SDS011;66537;52.370;4.832;2024-01-11T05:01:11;54.83;;;22.10;;
77451;SDS011;66537;52.370;4.832;2024-01-11T05:03:38;56.05;;;21.85;;
77451;SDS011;66537;52.370;4.832;2024-01-11T05:06:03;54.20;;;21.50;;
77451;SDS011;66537;52.370;4.832;2024-01-11T05:08:28;58.17;;;22.60;;
77451;SDS011;66537;52.370;4.832;2024-01-11T05:10:54;57.33;;;22.55;;
77451;SDS011;66537;52.370;4.832;2024-01-11T05:13:19;54.38;;;22.70;;
77451;SDS011;66537;52.370;4.832;2024-01-11T05:15:45;56.50;;;22.33;;
77451;SDS011;66537;52.370;4.832;2024-01-11T05:18:10;54.60;;;20.38;;
77451;SDS011;66537;52.370;4.832;2024-01-11T05:20:36;52.33;;;21.98;;
77451;SDS011;66537;52.370;4.832;2024-01-11T05:23:02;52.60;;;21.55;;
77451;SDS011;66537;52.370;4.832;2024-01-11T05:25:27;55.85;;;21.50;;
77451;SDS011;66537;52.370;4.832;2024-01-11T05:27:52;52.92;;;21.35;;
77451;SDS011;66537;52.370;4.832;2024-01-11T05:30:18;56.10;;;21.27;;
77451;SDS011;66537;52.370;4.832;2024-01-11T05:32:43;51.65;;;19.20;;
77451;SDS011;66537;52.370;4.832;2024-01-11T05:35:08;44.83;;;20.07;;
77451;SDS011;66537;52.370;4.832;2024-01-11T05:37:35;51.85;;;20.98;;
77451;SDS011;66537;52.370;4.832;2024-01-11T05:40:01;56.00;;;21.85;;
77451;SDS011;66537;52.370;4.832;2024-01-11T05:42:26;47.75;;;19.17;;
77451;SDS011;66537;52.370;4.832;2024-01-11T05:44:52;48.97;;;18.13;;
77451;SDS011;66537;52.370;4.832;2024-01-11T05:47:17;52.03;;;20.13;;
77451;SDS011;66537;52.370;4.832;2024-01-11T05:49:42;52.47;;;20.30;;
77451;SDS011;66537;52.370;4.832;2024-01-11T05:52:08;49.37;;;20.17;;
77451;SDS011;66537;52.370;4.832;2024-01-11T05:54:33;52.70;;;20.90;;
77451;SDS011;66537;52.370;4.832;2024-01-11T05:56:58;52.73;;;20.20;;
77451;SDS011;66537;52.370;4.832;2024-01-11T05:59:24;47.65;;;20.83;;
77451;SDS011;66537;52.370;4.832;2024-01-11T06:01:50;48.78;;;20.40;;
77451;SDS011;66537;52.370;4.832;2024-01-11T06:04:15;53.38;;;20.88;;
77451;SDS011;66537;52.370;4.832;2024-01-11T06:06:41;51.63;;;22.58;;
77451;SDS011;66537;52.370;4.832;2024-01-11T06:09:07;53.40;;;20.90;;
77451;SDS011;66537;52.370;4.832;2024-01-11T06:11:33;48.00;;;21.38;;
77451;SDS011;66537;52.370;4.832;2024-01-11T06:13:58;55.72;;;20.20;;
77451;SDS011;66537;52.370;4.832;2024-01-11T06:16:24;51.95;;;21.90;;
77451;SDS011;66537;52.370;4.832;2024-01-11T06:18:50;53.55;;;21.42;;
77451;SDS011;66537;52.370;4.832;2024-01-11T06:21:15;57.25;;;22.90;;
77451;SDS011;66537;52.370;4.832;2024-01-11T06:23:42;62.80;;;24.30;;
77451;SDS011;66537;52.370;4.832;2024-01-11T06:26:08;64.20;;;25.20;;
77451;SDS011;66537;52.370;4.832;2024-01-11T06:28:33;65.90;;;25.33;;
77451;SDS011;66537;52.370;4.832;2024-01-11T06:30:59;59.50;;;24.73;;
77451;SDS011;66537;52.370;4.832;2024-01-11T06:33:24;62.58;;;24.25;;
77451;SDS011;66537;52.370;4.832;2024-01-11T06:35:49;56.00;;;22.63;;
77451;SDS011;66537;52.370;4.832;2024-01-11T06:38:15;62.93;;;23.57;;
77451;SDS011;66537;52.370;4.832;2024-01-11T06:40:40;61.60;;;23.35;;
77451;SDS011;66537;52.370;4.832;2024-01-11T06:43:06;57.75;;;25.23;;
77451;SDS011;66537;52.370;4.832;2024-01-11T06:45:31;63.20;;;26.25;;
77451;SDS011;66537;52.370;4.832;2024-01-11T06:47:57;60.22;;;23.92;;
77451;SDS011;66537;52.370;4.832;2024-01-11T06:50:22;47.28;;;21.15;;
77451;SDS011;66537;52.370;4.832;2024-01-11T06:52:47;63.70;;;24.60;;
77451;SDS011;66537;52.370;4.832;2024-01-11T06:55:13;55.05;;;23.23;;
77451;SDS011;66537;52.370;4.832;2024-01-11T06:57:39;61.30;;;24.08;;
77451;SDS011;66537;52.370;4.832;2024-01-11T07:00:04;57.80;;;22.38;;
77451;SDS011;66537;52.370;4.832;2024-01-11T07:02:32;61.10;;;23.83;;
77451;SDS011;66537;52.370;4.832;2024-01-11T07:04:57;58.33;;;23.43;;
77451;SDS011;66537;52.370;4.832;2024-01-11T07:07:22;67.57;;;25.00;;
77451;SDS011;66537;52.370;4.832;2024-01-11T07:09:48;57.07;;;23.30;;
77451;SDS011;66537;52.370;4.832;2024-01-11T07:12:13;62.08;;;23.90;;
77451;SDS011;66537;52.370;4.832;2024-01-11T07:14:38;51.97;;;22.53;;
77451;SDS011;66537;52.370;4.832;2024-01-11T07:17:03;55.33;;;22.37;;
77451;SDS011;66537;52.370;4.832;2024-01-11T07:19:29;72.75;;;34.83;;
77451;SDS011;66537;52.370;4.832;2024-01-11T07:21:54;63.25;;;30.05;;
77451;SDS011;66537;52.370;4.832;2024-01-11T07:24:20;63.43;;;26.27;;
77451;SDS011;66537;52.370;4.832;2024-01-11T07:26:45;62.57;;;25.47;;
77451;SDS011;66537;52.370;4.832;2024-01-11T07:29:10;56.10;;;24.08;;
77451;SDS011;66537;52.370;4.832;2024-01-11T07:31:36;64.00;;;24.67;;
77451;SDS011;66537;52.370;4.832;2024-01-11T07:34:01;61.13;;;24.77;;
77451;SDS011;66537;52.370;4.832;2024-01-11T07:36:26;61.20;;;25.27;;
77451;SDS011;66537;52.370;4.832;2024-01-11T07:38:52;58.87;;;24.27;;
77451;SDS011;66537;52.370;4.832;2024-01-11T07:41:18;65.15;;;26.35;;
77451;SDS011;66537;52.370;4.832;2024-01-11T07:43:43;68.72;;;26.42;;
77451;SDS011;66537;52.370;4.832;2024-01-11T07:46:09;65.05;;;26.67;;
77451;SDS011;66537;52.370;4.832;2024-01-11T07:48:34;64.15;;;26.17;;
77451;SDS011;66537;52.370;4.832;2024-01-11T07:50:59;64.80;;;25.55;;
77451;SDS011;66537;52.370;4.832;2024-01-11T07:53:25;70.90;;;27.23;;
77451;SDS011;66537;52.370;4.832;2024-01-11T07:55:51;80.22;;;27.85;;
77451;SDS011;66537;52.370;4.832;2024-01-11T07:58:17;62.50;;;25.50;;
77451;SDS011;66537;52.370;4.832;2024-01-11T08:00:43;63.95;;;25.70;;
77451;SDS011;66537;52.370;4.832;2024-01-11T08:03:09;79.05;;;28.83;;
77451;SDS011;66537;52.370;4.832;2024-01-11T08:05:35;67.28;;;28.13;;
77451;SDS011;66537;52.370;4.832;2024-01-11T08:08:00;65.50;;;27.03;;
77451;SDS011;66537;52.370;4.832;2024-01-11T08:10:28;65.53;;;27.52;;
77451;SDS011;66537;52.370;4.832;2024-01-11T08:12:53;63.60;;;27.23;;
77451;SDS011;66537;52.370;4.832;2024-01-11T08:15:19;61.72;;;26.73;;
77451;SDS011;66537;52.370;4.832;2024-01-11T08:17:45;62.88;;;26.98;;
77451;SDS011;66537;52.370;4.832;2024-01-11T08:20:10;62.55;;;25.73;;
77451;SDS011;66537;52.370;4.832;2024-01-11T08:22:36;64.90;;;24.67;;
77451;SDS011;66537;52.370;4.832;2024-01-11T08:25:04;58.53;;;23.58;;
77451;SDS011;66537;52.370;4.832;2024-01-11T08:27:33;60.58;;;24.98;;
77451;SDS011;66537;52.370;4.832;2024-01-11T08:29:58;59.25;;;23.63;;
77451;SDS011;66537;52.370;4.832;2024-01-11T08:32:27;60.85;;;23.48;;
77451;SDS011;66537;52.370;4.832;2024-01-11T08:34:53;60.30;;;25.50;;
77451;SDS011;66537;52.370;4.832;2024-01-11T08:37:18;65.00;;;23.90;;
77451;SDS011;66537;52.370;4.832;2024-01-11T08:39:43;60.03;;;23.67;;
77451;SDS011;66537;52.370;4.832;2024-01-11T08:42:11;57.65;;;25.50;;
77451;SDS011;66537;52.370;4.832;2024-01-11T08:44:36;59.88;;;24.25;;
77451;SDS011;66537;52.370;4.832;2024-01-11T08:47:05;61.13;;;24.15;;
77451;SDS011;66537;52.370;4.832;2024-01-11T08:49:31;57.27;;;23.97;;
77451;SDS011;66537;52.370;4.832;2024-01-11T08:51:56;65.47;;;25.38;;
77451;SDS011;66537;52.370;4.832;2024-01-11T08:54:21;54.27;;;22.80;;
77451;SDS011;66537;52.370;4.832;2024-01-11T08:56:47;53.27;;;22.43;;
77451;SDS011;66537;52.370;4.832;2024-01-11T08:59:12;52.42;;;22.70;;
77451;SDS011;66537;52.370;4.832;2024-01-11T09:01:38;50.30;;;20.70;;
77451;SDS011;66537;52.370;4.832;2024-01-11T09:04:04;50.33;;;19.98;;
77451;SDS011;66537;52.370;4.832;2024-01-11T09:06:30;45.53;;;19.67;;
77451;SDS011;66537;52.370;4.832;2024-01-11T09:08:55;46.70;;;20.98;;
77451;SDS011;66537;52.370;4.832;2024-01-11T09:11:21;49.77;;;20.70;;
77451;SDS011;66537;52.370;4.832;2024-01-11T09:13:46;47.77;;;21.17;;
77451;SDS011;66537;52.370;4.832;2024-01-11T09:16:17;44.57;;;18.80;;
77451;SDS011;66537;52.370;4.832;2024-01-11T09:18:43;48.40;;;19.35;;
77451;SDS011;66537;52.370;4.832;2024-01-11T09:21:09;48.08;;;20.45;;
77451;SDS011;66537;52.370;4.832;2024-01-11T09:23:34;48.17;;;18.70;;
77451;SDS011;66537;52.370;4.832;2024-01-11T09:26:00;46.10;;;19.27;;
77451;SDS011;66537;52.370;4.832;2024-01-11T09:28:25;41.80;;;19.50;;
77451;SDS011;66537;52.370;4.832;2024-01-11T09:30:50;39.93;;;18.20;;
77451;SDS011;66537;52.370;4.832;2024-01-11T09:33:16;41.25;;;19.23;;
77451;SDS011;66537;52.370;4.832;2024-01-11T09:35:44;43.17;;;19.17;;
77451;SDS011;66537;52.370;4.832;2024-01-11T09:38:09;40.40;;;18.20;;
77451;SDS011;66537;52.370;4.832;2024-01-11T09:40:36;58.95;;;19.10;;
77451;SDS011;66537;52.370;4.832;2024-01-11T09:43:02;43.20;;;17.38;;
77451;SDS011;66537;52.370;4.832;2024-01-11T09:45:29;40.45;;;16.38;;
77451;SDS011;66537;52.370;4.832;2024-01-11T09:47:55;42.30;;;18.10;;
77451;SDS011;66537;52.370;4.832;2024-01-11T09:50:20;42.08;;;17.50;;
77451;SDS011;66537;52.370;4.832;2024-01-11T09:52:48;43.92;;;19.20;;
77451;SDS011;66537;52.370;4.832;2024-01-11T09:55:14;42.53;;;20.05;;
77451;SDS011;66537;52.370;4.832;2024-01-11T09:57:43;47.00;;;21.23;;
77451;SDS011;66537;52.370;4.832;2024-01-11T10:00:11;44.30;;;20.42;;
77451;SDS011;66537;52.370;4.832;2024-01-11T10:02:38;45.33;;;19.88;;
77451;SDS011;66537;52.370;4.832;2024-01-11T10:05:04;45.17;;;18.40;;
77451;SDS011;66537;52.370;4.832;2024-01-11T10:07:30;44.38;;;16.85;;
77451;SDS011;66537;52.370;4.832;2024-01-11T10:09:57;30.58;;;14.23;;
77451;SDS011;66537;52.370;4.832;2024-01-11T10:12:23;29.25;;;13.23;;
77451;SDS011;66537;52.370;4.832;2024-01-11T10:14:50;40.13;;;16.02;;
77451;SDS011;66537;52.370;4.832;2024-01-11T10:17:17;32.50;;;14.02;;
77451;SDS011;66537;52.370;4.832;2024-01-11T10:19:43;32.10;;;12.63;;
77451;SDS011;66537;52.370;4.832;2024-01-11T10:22:08;33.35;;;13.98;;
77451;SDS011;66537;52.370;4.832;2024-01-11T10:24:37;28.35;;;13.20;;
77451;SDS011;66537;52.370;4.832;2024-01-11T10:27:03;33.42;;;15.00;;
77451;SDS011;66537;52.370;4.832;2024-01-11T10:29:30;28.63;;;14.32;;
77451;SDS011;66537;52.370;4.832;2024-01-11T10:31:57;27.98;;;11.95;;
77451;SDS011;66537;52.370;4.832;2024-01-11T10:34:25;32.43;;;14.90;;
77451;SDS011;66537;52.370;4.832;2024-01-11T10:36:50;23.80;;;10.93;;
77451;SDS011;66537;52.370;4.832;2024-01-11T10:39:16;23.38;;;10.85;;
77451;SDS011;66537;52.370;4.832;2024-01-11T10:41:45;26.95;;;10.80;;
77451;SDS011;66537;52.370;4.832;2024-01-11T10:46:48;27.92;;;12.30;;
77451;SDS011;66537;52.370;4.832;2024-01-11T10:49:19;28.52;;;12.05;;
77451;SDS011;66537;52.370;4.832;2024-01-11T10:51:58;28.65;;;11.45;;
77451;SDS011;66537;52.370;4.832;2024-01-11T10:54:25;29.88;;;12.13;;
77451;SDS011;66537;52.370;4.832;2024-01-11T10:56:52;25.20;;;10.93;;
77451;SDS011;66537;52.370;4.832;2024-01-11T10:59:19;26.35;;;11.70;;
77451;SDS011;66537;52.370;4.832;2024-01-11T11:01:49;22.40;;;9.93;;
77451;SDS011;66537;52.370;4.832;2024-01-11T11:04:17;20.58;;;9.38;;
77451;SDS011;66537;52.370;4.832;2024-01-11T11:06:44;21.08;;;9.77;;
77451;SDS011;66537;52.370;4.832;2024-01-11T11:09:10;23.98;;;9.45;;
77451;SDS011;66537;52.370;4.832;2024-01-11T11:11:39;19.83;;;8.45;;
77451;SDS011;66537;52.370;4.832;2024-01-11T11:14:04;18.60;;;7.72;;
77451;SDS011;66537;52.370;4.832;2024-01-11T11:16:31;19.10;;;8.43;;
77451;SDS011;66537;52.370;4.832;2024-01-11T11:18:56;17.67;;;8.13;;
77451;SDS011;66537;52.370;4.832;2024-01-11T11:21:22;17.83;;;8.38;;
77451;SDS011;66537;52.370;4.832;2024-01-11T11:23:49;17.02;;;7.55;;
77451;SDS011;66537;52.370;4.832;2024-01-11T11:26:18;19.13;;;7.95;;
77451;SDS011;66537;52.370;4.832;2024-01-11T11:28:43;20.27;;;9.10;;
77451;SDS011;66537;52.370;4.832;2024-01-11T11:31:12;26.83;;;12.18;;
77451;SDS011;66537;52.370;4.832;2024-01-11T11:33:37;25.30;;;11.40;;
77451;SDS011;66537;52.370;4.832;2024-01-11T11:36:03;26.03;;;13.00;;
77451;SDS011;66537;52.370;4.832;2024-01-11T11:38:29;28.30;;;13.98;;
77451;SDS011;66537;52.370;4.832;2024-01-11T11:40:56;25.10;;;13.55;;
77451;SDS011;66537;52.370;4.832;2024-01-11T11:43:23;24.08;;;12.07;;
77451;SDS011;66537;52.370;4.832;2024-01-11T11:45:49;26.80;;;13.23;;
77451;SDS011;66537;52.370;4.832;2024-01-11T11:51:10;25.38;;;12.73;;
77451;SDS011;66537;52.370;4.832;2024-01-11T11:53:37;21.52;;;10.55;;
77451;SDS011;66537;52.370;4.832;2024-01-11T11:56:03;24.33;;;11.75;;
77451;SDS011;66537;52.370;4.832;2024-01-11T11:58:29;21.38;;;10.00;;
77451;SDS011;66537;52.370;4.832;2024-01-11T12:00:56;26.73;;;11.02;;
77451;SDS011;66537;52.370;4.832;2024-01-11T12:03:32;23.65;;;12.25;;
77451;SDS011;66537;52.370;4.832;2024-01-11T12:06:05;20.17;;;9.57;;
77451;SDS011;66537;52.370;4.832;2024-01-11T12:08:32;21.00;;;8.68;;
77451;SDS011;66537;52.370;4.832;2024-01-11T12:10:57;21.20;;;10.55;;
77451;SDS011;66537;52.370;4.832;2024-01-11T12:13:23;25.65;;;11.80;;
77451;SDS011;66537;52.370;4.832;2024-01-11T12:15:49;23.17;;;11.90;;
77451;SDS011;66537;52.370;4.832;2024-01-11T12:18:14;26.67;;;12.53;;
77451;SDS011;66537;52.370;4.832;2024-01-11T12:20:40;27.00;;;10.90;;
77451;SDS011;66537;52.370;4.832;2024-01-11T12:23:05;22.63;;;10.43;;
77451;SDS011;66537;52.370;4.832;2024-01-11T12:25:31;26.23;;;11.18;;
77451;SDS011;66537;52.370;4.832;2024-01-11T12:27:56;25.27;;;12.73;;
77451;SDS011;66537;52.370;4.832;2024-01-11T12:30:22;25.40;;;12.30;;
77451;SDS011;66537;52.370;4.832;2024-01-11T12:32:48;20.90;;;9.70;;
77451;SDS011;66537;52.370;4.832;2024-01-11T12:35:15;22.98;;;10.75;;
77451;SDS011;66537;52.370;4.832;2024-01-11T12:37:41;23.63;;;10.88;;
77451;SDS011;66537;52.370;4.832;2024-01-11T12:40:06;23.17;;;11.60;;
77451;SDS011;66537;52.370;4.832;2024-01-11T12:42:35;24.90;;;9.98;;
77451;SDS011;66537;52.370;4.832;2024-01-11T12:45:00;22.98;;;11.35;;
77451;SDS011;66537;52.370;4.832;2024-01-11T12:47:26;26.33;;;11.20;;
77451;SDS011;66537;52.370;4.832;2024-01-11T12:49:52;21.58;;;10.93;;
77451;SDS011;66537;52.370;4.832;2024-01-11T12:52:20;21.93;;;10.50;;
77451;SDS011;66537;52.370;4.832;2024-01-11T12:54:46;22.05;;;11.43;;
77451;SDS011;66537;52.370;4.832;2024-01-11T12:57:12;22.27;;;10.50;;
77451;SDS011;66537;52.370;4.832;2024-01-11T12:59:37;19.42;;;9.32;;
77451;SDS011;66537;52.370;4.832;2024-01-11T13:02:05;19.27;;;10.35;;
77451;SDS011;66537;52.370;4.832;2024-01-11T13:04:31;18.70;;;9.00;;
77451;SDS011;66537;52.370;4.832;2024-01-11T13:06:56;19.30;;;8.00;;
77451;SDS011;66537;52.370;4.832;2024-01-11T13:09:21;20.60;;;7.93;;
77451;SDS011;66537;52.370;4.832;2024-01-11T13:11:47;16.52;;;7.35;;
77451;SDS011;66537;52.370;4.832;2024-01-11T13:14:13;18.40;;;7.35;;
77451;SDS011;66537;52.370;4.832;2024-01-11T13:16:43;15.65;;;7.10;;
77451;SDS011;66537;52.370;4.832;2024-01-11T13:19:10;15.10;;;6.55;;
77451;SDS011;66537;52.370;4.832;2024-01-11T13:21:36;17.73;;;6.78;;
77451;SDS011;66537;52.370;4.832;2024-01-11T13:24:02;18.80;;;8.02;;
77451;SDS011;66537;52.370;4.832;2024-01-11T13:26:27;15.23;;;7.15;;
77451;SDS011;66537;52.370;4.832;2024-01-11T13:28:53;17.75;;;7.25;;
77451;SDS011;66537;52.370;4.832;2024-01-11T13:31:18;17.13;;;6.17;;
77451;SDS011;66537;52.370;4.832;2024-01-11T13:33:45;14.35;;;6.90;;
77451;SDS011;66537;52.370;4.832;2024-01-11T13:36:10;26.07;;;7.87;;
77451;SDS011;66537;52.370;4.832;2024-01-11T13:38:35;16.42;;;7.00;;
77451;SDS011;66537;52.370;4.832;2024-01-11T13:41:01;17.25;;;7.30;;
77451;SDS011;66537;52.370;4.832;2024-01-11T13:43:26;20.17;;;8.00;;
77451;SDS011;66537;52.370;4.832;2024-01-11T13:45:51;19.07;;;9.43;;
77451;SDS011;66537;52.370;4.832;2024-01-11T13:48:17;20.13;;;8.45;;
77451;SDS011;66537;52.370;4.832;2024-01-11T13:50:42;23.88;;;8.63;;
77451;SDS011;66537;52.370;4.832;2024-01-11T13:53:08;21.43;;;10.17;;
77451;SDS011;66537;52.370;4.832;2024-01-11T13:55:33;18.45;;;7.60;;
77451;SDS011;66537;52.370;4.832;2024-01-11T13:58:04;19.92;;;8.70;;
77451;SDS011;66537;52.370;4.832;2024-01-11T14:00:30;18.90;;;7.65;;
77451;SDS011;66537;52.370;4.832;2024-01-11T14:02:56;20.10;;;9.90;;
77451;SDS011;66537;52.370;4.832;2024-01-11T14:05:22;19.67;;;9.30;;
77451;SDS011;66537;52.370;4.832;2024-01-11T14:07:47;24.23;;;10.43;;
77451;SDS011;66537;52.370;4.832;2024-01-11T14:10:19;23.50;;;8.68;;
77451;SDS011;66537;52.370;4.832;2024-01-11T14:12:44;20.23;;;8.95;;
77451;SDS011;66537;52.370;4.832;2024-01-11T14:15:10;25.37;;;8.13;;
77451;SDS011;66537;52.370;4.832;2024-01-11T14:17:38;20.27;;;8.93;;
77451;SDS011;66537;52.370;4.832;2024-01-11T14:20:04;21.00;;;9.70;;
77451;SDS011;66537;52.370;4.832;2024-01-11T14:22:34;21.58;;;10.23;;